Time,TemperatureF,DewpointF,PressureIn,WindDirection,WindDirectionDegrees,WindSpeedMPH,WindSpeedGustMPH,Humidity,HourlyPrecipIn,Conditions,Clouds,dailyrainin,SoftwareType,DateUTC
2013-10-12 09:15:00,60.8,33.6,0.00,NE,34,4.0,4.0,36,0.00,,,0.00,Weather View 32 v70,2013-10-12 13:15:00,
2013-10-12 09:30:00,61.7,33.0,0.00,North,357,4.0,9.0,34,0.00,,,0.00,Weather View 32 v70,2013-10-12 13:30:00,
2013-10-12 09:45:00,63.0,31.0,0.00,SE,143,3.0,9.0,30,0.00,,,0.00,Weather View 32 v70,2013-10-12 13:45:00,
2013-10-12 10:00:00,64.9,31.0,0.00,North,7,5.0,10.0,28,0.00,,,0.00,Weather View 32 v70,2013-10-12 14:00:00,
2013-10-12 10:15:00,66.0,31.0,0.00,NNE,30,4.0,10.0,27,0.00,,,0.00,Weather View 32 v70,2013-10-12 14:15:00,
2013-10-12 10:30:00,64.8,34.1,0.00,NNW,345,3.0,10.0,32,0.00,,,0.00,Weather View 32 v70,2013-10-12 14:30:00,
2013-10-12 10:45:00,64.9,35.1,0.00,North,353,2.0,10.0,33,0.00,,,0.00,Weather View 32 v70,2013-10-12 14:45:00,
2013-10-12 11:00:00,65.3,35.4,0.00,NNW,332,4.0,9.0,33,0.00,,,0.00,Weather View 32 v70,2013-10-12 15:00:00,
2013-10-12 11:15:00,65.7,37.2,0.00,NNW,335,3.0,9.0,35,0.00,,,0.00,Weather View 32 v70,2013-10-12 15:15:00,
2013-10-12 11:16:00,65.7,37.2,0.00,NNW,335,3.0,9.0,35,0.00,,,0.00,Weather View 32 v70,2013-10-12 15:16:00,
2013-10-12 11:30:00,66.2,36.9,0.00,North,357,3.0,9.0,34,0.00,,,0.00,Weather View 32 v70,2013-10-12 15:30:00,
2013-10-12 11:45:00,67.8,38.4,0.00,East,98,3.0,9.0,34,0.00,,,0.00,Weather View 32 v70,2013-10-12 15:45:00,
2013-10-12 12:00:00,68.4,37.3,0.00,NNE,14,0.0,8.0,32,0.00,,,0.00,Weather View 32 v70,2013-10-12 16:00:00,
2013-10-12 12:15:00,68.7,38.4,0.00,North,0,3.0,8.0,33,0.00,,,0.00,Weather View 32 v70,2013-10-12 16:15:00,
2013-10-12 12:30:00,70.0,38.7,0.00,North,6,5.0,8.0,32,0.00,,,0.00,Weather View 32 v70,2013-10-12 16:30:00,
2013-10-12 12:45:00,72.9,33.9,0.00,NNW,343,3.0,8.0,24,0.00,,,0.00,Weather View 32 v70,2013-10-12 16:45:00,
2013-10-12 13:00:00,73.8,31.3,0.00,North,353,3.0,8.0,21,0.00,,,0.00,Weather View 32 v70,2013-10-12 17:00:00,
2013-10-12 13:15:00,74.1,27.8,0.00,North,4,5.0,8.0,18,0.00,,,0.00,Weather View 32 v70,2013-10-12 17:15:00,
2013-10-12 13:30:00,74.1,27.8,0.00,East,80,4.0,8.0,18,0.00,,,0.00,Weather View 32 v70,2013-10-12 17:30:00,
2013-10-12 13:45:00,73.9,27.7,0.00,NNW,331,6.0,8.0,18,0.00,,,0.00,Weather View 32 v70,2013-10-12 17:45:00,
2013-10-12 14:00:00,74.7,25.4,0.00,NW,320,4.0,8.0,16,0.00,,,0.00,Weather View 32 v70,2013-10-12 18:00:00,
2013-10-12 14:15:00,74.8,25.5,0.00,North,2,3.0,8.0,16,0.00,,,0.00,Weather View 32 v70,2013-10-12 18:15:00,
2013-10-12 14:30:00,75.6,24.6,0.00,NNW,333,6.0,8.0,15,0.00,,,0.00,Weather View 32 v70,2013-10-12 18:30:00,
2013-10-12 14:45:00,76.1,25.0,0.00,NE,43,2.0,8.0,15,0.00,,,0.00,Weather View 32 v70,2013-10-12 18:45:00,
2013-10-12 15:00:00,78.4,26.8,0.00,NNW,327,3.0,8.0,15,0.00,,,0.00,Weather View 32 v70,2013-10-12 19:00:00,
2013-10-12 15:15:00,78.8,27.1,0.00,North,357,5.0,8.0,15,0.00,,,0.00,Weather View 32 v70,2013-10-12 19:15:00,
2013-10-12 15:30:00,77.4,26.0,0.00,NE,51,3.0,8.0,15,0.00,,,0.00,Weather View 32 v70,2013-10-12 19:30:00,
2013-10-12 15:45:00,74.5,28.1,0.00,North,1,3.0,7.0,18,0.00,,,0.00,Weather View 32 v70,2013-10-12 19:45:00,
2013-10-12 15:59:00,73.0,31.8,0.00,NNW,341,3.0,7.0,22,0.00,,,0.00,Weather View 32 v70,2013-10-12 19:59:00,
2013-10-12 16:15:00,71.8,30.8,0.00,SE,131,3.0,7.0,22,0.00,,,0.00,Weather View 32 v70,2013-10-12 20:15:00,
2013-10-12 16:30:00,71.2,32.5,0.00,South,175,3.0,7.0,24,0.00,,,0.00,Weather View 32 v70,2013-10-12 20:30:00,
2013-10-12 16:45:00,70.5,36.6,0.00,NE,55,4.0,13.0,29,0.00,,,0.00,Weather View 32 v70,2013-10-12 20:45:00,
2013-10-12 17:00:00,70.0,39.5,0.00,ENE,66,3.0,13.0,33,0.00,,,0.00,Weather View 32 v70,2013-10-12 21:00:00,
2013-10-12 17:15:00,68.9,40.8,0.00,NW,311,0.0,13.0,36,0.00,,,0.00,Weather View 32 v70,2013-10-12 21:15:00,
2013-10-12 17:20:00,68.9,40.8,0.00,NW,311,0.0,13.0,36,0.00,,,0.00,Weather View 32 v70,2013-10-12 21:20:00,
2013-10-12 17:30:00,67.6,42.4,0.00,SSW,199,3.0,13.0,40,0.00,,,0.00,Weather View 32 v70,2013-10-12 21:30:00,
2013-10-12 17:45:00,67.3,43.3,0.00,North,7,0.0,8.0,42,0.00,,,0.00,Weather View 32 v70,2013-10-12 21:45:00,
2013-10-12 18:00:00,66.6,43.9,0.00,NNE,29,0.0,8.0,44,0.00,,,0.00,Weather View 32 v70,2013-10-12 22:00:00,
2013-10-12 18:15:00,65.8,44.4,0.00,NW,317,3.0,6.0,46,0.00,,,0.00,Weather View 32 v70,2013-10-12 22:15:00,
2013-10-12 18:20:00,65.8,44.4,0.00,NW,317,3.0,6.0,46,0.00,,,0.00,Weather View 32 v70,2013-10-12 22:20:00,
2013-10-12 18:30:00,65.3,45.1,0.00,SSE,157,0.0,6.0,48,0.00,,,0.00,Weather View 32 v70,2013-10-12 22:30:00,
2013-10-12 18:45:00,64.6,46.5,0.00,South,190,0.0,6.0,52,0.00,,,0.00,Weather View 32 v70,2013-10-12 22:45:00,
2013-10-12 19:00:00,64.0,48.0,0.00,SE,131,0.0,5.0,56,0.00,,,0.00,Weather View 32 v70,2013-10-12 23:00:00,
2013-10-12 19:15:00,63.7,48.6,0.00,ENE,77,0.0,5.0,58,0.00,,,0.00,Weather View 32 v70,2013-10-12 23:15:00,
2013-10-12 19:21:00,63.7,48.6,0.00,ENE,77,0.0,5.0,58,0.00,,,0.00,Weather View 32 v70,2013-10-12 23:21:00,
2013-10-12 19:29:00,63.3,49.2,0.00,West,280,0.0,4.0,60,0.00,,,0.00,Weather View 32 v70,2013-10-12 23:29:00,
2013-10-12 19:45:00,63.0,49.7,0.00,NNE,31,0.0,4.0,62,0.00,,,0.00,Weather View 32 v70,2013-10-12 23:45:00,
2013-10-12 20:00:00,62.8,50.4,0.00,NNW,339,0.0,4.0,64,0.00,,,0.00,Weather View 32 v70,2013-10-13 00:00:00,
2013-10-12 20:15:00,62.4,50.5,0.00,NW,326,0.0,4.0,65,0.00,,,0.00,Weather View 32 v70,2013-10-13 00:15:00,
2013-10-12 20:22:00,62.4,50.5,0.00,NW,326,0.0,4.0,65,0.00,,,0.00,Weather View 32 v70,2013-10-13 00:22:00,
2013-10-12 20:29:00,62.6,50.6,0.00,SW,230,0.0,4.0,65,0.00,,,0.00,Weather View 32 v70,2013-10-13 00:29:00,
2013-10-12 20:44:00,62.6,49.8,0.00,ENE,75,4.0,6.0,63,0.00,,,0.00,Weather View 32 v70,2013-10-13 00:44:00,
2013-10-12 21:00:00,62.6,48.0,0.00,North,353,3.0,6.0,59,0.00,,,0.00,Weather View 32 v70,2013-10-13 01:00:00,
2013-10-12 21:15:00,62.6,46.6,0.00,NNW,332,4.0,6.0,56,0.00,,,0.00,Weather View 32 v70,2013-10-13 01:15:00,
2013-10-12 21:22:00,62.6,46.6,0.00,NNW,332,4.0,6.0,56,0.00,,,0.00,Weather View 32 v70,2013-10-13 01:22:00,
2013-10-12 21:30:00,62.4,45.0,0.00,North,357,3.0,6.0,53,0.00,,,0.00,Weather View 32 v70,2013-10-13 01:30:00,
2013-10-12 21:45:00,62.4,46.0,0.00,NNW,341,0.0,6.0,55,0.00,,,0.00,Weather View 32 v70,2013-10-13 01:45:00,
2013-10-12 21:59:00,62.2,44.9,0.00,NNE,32,0.0,6.0,53,0.00,,,0.00,Weather View 32 v70,2013-10-13 01:59:00,
2013-10-12 22:15:00,61.9,44.0,0.00,NE,54,4.0,6.0,52,0.00,,,0.00,Weather View 32 v70,2013-10-13 02:15:00,
2013-10-12 22:23:00,61.9,44.0,0.00,NE,54,4.0,6.0,52,0.00,,,0.00,Weather View 32 v70,2013-10-13 02:23:00,
2013-10-12 22:30:00,61.5,44.2,0.00,ENE,77,3.0,6.0,53,0.00,,,0.00,Weather View 32 v70,2013-10-13 02:30:00,
2013-10-12 22:44:00,61.3,44.0,0.00,NNE,25,4.0,6.0,53,0.00,,,0.00,Weather View 32 v70,2013-10-13 02:44:00,
2013-10-12 23:00:00,61.2,43.9,0.00,NNE,20,3.0,6.0,53,0.00,,,0.00,Weather View 32 v70,2013-10-13 03:00:00,
2013-10-12 23:15:00,61.0,43.7,0.00,NE,36,4.0,5.0,53,0.00,,,0.00,Weather View 32 v70,2013-10-13 03:15:00,
2013-10-12 23:23:00,61.0,43.7,0.00,NE,36,4.0,5.0,53,0.00,,,0.00,Weather View 32 v70,2013-10-13 03:23:00,
2013-10-12 23:30:00,60.6,43.8,0.00,North,10,3.0,5.0,54,0.00,,,0.00,Weather View 32 v70,2013-10-13 03:30:00,
2013-10-12 23:45:00,60.6,43.8,0.00,NNW,341,0.0,5.0,54,0.00,,,0.00,Weather View 32 v70,2013-10-13 03:45:00,